Tropic, UT

5:54 AM MDT on September 16, 2014 (GMT -0600)
Colorado City Municipal | Change Station
CLOSE
Current Station
Airport
Location: Colorado City,
Elevation: 4875 ft
Nearby Weather Stations

Elev 4875 ft 36.96 °N, 113.01 °W | Updated 19 minutes ago

Clear
Clear
56 °F
Feels Like 56 °F
N
5
Wind Variable Wind from SE

Today
High -- | Low -- °F
--% Chance of Precip.
Yesterday
High -- | Low -- °F
Precip. -- in
7:11 AM 7:34 PM
Last Quarter, 46% visible
Pressure 30.17 in
Visibility 10.0 miles
Clouds Clear
Dew Point 40 °F
Humidity 57%
Rainfall 0.00 in
Snow Depth 0 in , 0 in
UV 0 out of 12
Pollen 6.20 out of 12
Air Quality Not available.
Flu Activity Not available.
METAR KAZC 161135Z AUTO 14004KT 10SM CLR 13/05 A3017 RMK AO2 T01310047

More Conditions Fewer Conditions

Pressure 30.17 in
Visibility 10.0 miles
Clouds Clear
Dew Point 40 °F
Humidity 57%
Rainfall 0.00 in
Snow Depth 0 in , 0 in
UV 0 out of 12
Pollen 6.20 out of 12
Air Quality Not available.
Flu Activity Not available.
METAR KAZC 161135Z AUTO 14004KT 10SM CLR 13/05 A3017 RMK AO2 T01310047

More Conditions Fewer Conditions

10-Day Weather Forecast

Almanac

Astronomy

Sep. 16, 2014 Rise Set
Actual Time 7:11 AM MDT 7:34 PM MDT
Civil Twilight 6:44 AM MDT 8:00 PM MDT
Nautical Twilight 6:14 AM MDT 8:31 PM MDT
Astronomical Twilight 5:42 AM MDT 9:02 PM MDT
Moon 12:28 AM MDT 2:56 PM MDT
Length of Visible Light 13h 15m
Length of Day
12h 23m
Tomorrow will be 2m 23s shorter.
Last Quarter, 46% of the Moon is Illuminated
Today
Last Quarter
Sep 24
New
Oct 1
First Quarter
Oct 8
Full
Oct 15
Last Quarter

Today's Extremes

State Highs State Lows

Community

WunderPhotos

Upload Photos

1,753,724 photos uploaded!

Nearby

Snow Depth

Station Depth Elevation
Currant Creek 0 in 8000 ft
Ben Lomond Trail 2 in 6000 ft
Clear Creek #2 0 in 8300 ft
Chepeta 0 in 10300 ft
Thaynes Canyon 0 in 9200 ft

Earthquake Activity

City Distance Mag. Time & Date
No recent earthquake activity has been reported nearby.
Minimum magnitude displayed is 2.5.

Coastal Water Temperatures

Place Temperature
No Stations Reporting

Nearby Weather Stations